sensor_id;sensor_type;location;lat;lon;timestamp;pressure;altitude;pressure_sealevel;temperature;humidity
39555;BME280;25231;48.746;9.234;2023-02-13T00:01:55;98569.97;;;2.92;100.00
39555;BME280;25231;48.746;9.234;2023-02-13T00:04:21;98563.31;;;2.89;100.00
39555;BME280;25231;48.746;9.234;2023-02-13T00:06:46;98563.56;;;2.86;100.00
39555;BME280;25231;48.746;9.234;2023-02-13T00:09:15;98562.63;;;2.87;100.00
39555;BME280;25231;48.746;9.234;2023-02-13T00:11:40;98562.63;;;2.87;100.00
39555;BME280;25231;48.746;9.234;2023-02-13T00:14:07;98561.09;;;2.85;100.00
39555;BME280;25231;48.746;9.234;2023-02-13T00:16:33;98567.50;;;2.90;100.00
39555;BME280;25231;48.746;9.234;2023-02-13T00:18:58;98559.50;;;2.93;100.00
39555;BME280;25231;48.746;9.234;2023-02-13T00:21:24;98567.09;;;2.85;100.00
39555;BME280;25231;48.746;9.234;2023-02-13T00:23:49;98571.22;;;2.88;100.00
39555;BME280;25231;48.746;9.234;2023-02-13T00:26:15;98564.38;;;2.87;100.00
39555;BME280;25231;48.746;9.234;2023-02-13T00:28:41;98567.63;;;2.79;100.00
39555;BME280;25231;48.746;9.234;2023-02-13T00:31:09;98565.19;;;2.78;100.00
39555;BME280;25231;48.746;9.234;2023-02-13T00:33:37;98568.47;;;2.80;100.00
39555;BME280;25231;48.746;9.234;2023-02-13T00:36:24;98559.84;;;2.70;100.00
39555;BME280;25231;48.746;9.234;2023-02-13T00:38:49;98566.41;;;2.74;100.00
39555;BME280;25231;48.746;9.234;2023-02-13T00:41:16;98563.97;;;2.82;100.00
39555;BME280;25231;48.746;9.234;2023-02-13T00:43:42;98557.44;;;2.78;100.00
39555;BME280;25231;48.746;9.234;2023-02-13T00:46:08;98564.38;;;2.77;100.00
39555;BME280;25231;48.746;9.234;2023-02-13T00:48:34;98564.91;;;2.81;100.00
39555;BME280;25231;48.746;9.234;2023-02-13T00:51:01;98561.81;;;2.87;100.00
39555;BME280;25231;48.746;9.234;2023-02-13T00:53:27;98558.94;;;2.90;100.00
39555;BME280;25231;48.746;9.234;2023-02-13T00:55:53;98559.03;;;2.79;100.00
39555;BME280;25231;48.746;9.234;2023-02-13T00:58:19;98565.22;;;2.87;100.00
39555;BME280;25231;48.746;9.234;2023-02-13T01:00:45;98560.97;;;2.67;100.00
39555;BME280;25231;48.746;9.234;2023-02-13T01:03:14;98555.09;;;2.65;100.00
39555;BME280;25231;48.746;9.234;2023-02-13T01:05:40;98561.50;;;2.71;100.00
39555;BME280;25231;48.746;9.234;2023-02-13T01:08:06;98551.25;;;2.60;100.00
39555;BME280;25231;48.746;9.234;2023-02-13T01:10:31;98552.63;;;2.64;100.00
39555;BME280;25231;48.746;9.234;2023-02-13T01:12:57;98551.69;;;2.74;100.00
39555;BME280;25231;48.746;9.234;2023-02-13T01:15:23;98555.69;;;2.88;100.00
39555;BME280;25231;48.746;9.234;2023-02-13T01:17:48;98555.50;;;2.80;100.00
39555;BME280;25231;48.746;9.234;2023-02-13T01:20:14;98548.84;;;2.77;100.00
39555;BME280;25231;48.746;9.234;2023-02-13T01:22:39;98555.03;;;2.46;100.00
39555;BME280;25231;48.746;9.234;2023-02-13T01:25:06;98552.59;;;2.54;100.00
39555;BME280;25231;48.746;9.234;2023-02-13T01:27:32;98556.97;;;2.54;100.00
39555;BME280;25231;48.746;9.234;2023-02-13T01:29:58;98550.44;;;2.59;100.00
39555;BME280;25231;48.746;9.234;2023-02-13T01:32:23;98552.50;;;2.65;100.00
39555;BME280;25231;48.746;9.234;2023-02-13T01:34:49;98548.56;;;2.71;100.00
39555;BME280;25231;48.746;9.234;2023-02-13T01:37:15;98546.91;;;2.70;100.00
39555;BME280;25231;48.746;9.234;2023-02-13T01:39:40;98544.88;;;2.73;100.00
39555;BME280;25231;48.746;9.234;2023-02-13T01:42:20;98540.50;;;2.64;100.00
39555;BME280;25231;48.746;9.234;2023-02-13T01:44:55;98546.50;;;2.65;100.00
39555;BME280;25231;48.746;9.234;2023-02-13T01:47:56;98548.03;;;2.67;100.00
39555;BME280;25231;48.746;9.234;2023-02-13T01:50:36;98542.97;;;2.56;100.00
39555;BME280;25231;48.746;9.234;2023-02-13T01:55:42;98543.00;;;2.35;100.00
39555;BME280;25231;48.746;9.234;2023-02-13T01:58:15;98538.31;;;2.50;100.00
39555;BME280;25231;48.746;9.234;2023-02-13T02:00:44;98541.44;;;2.54;100.00
39555;BME280;25231;48.746;9.234;2023-02-13T02:03:22;98542.91;;;2.46;100.00
39555;BME280;25231;48.746;9.234;2023-02-13T02:05:50;98540.59;;;2.43;100.00
39555;BME280;25231;48.746;9.234;2023-02-13T02:08:16;98544.63;;;2.27;100.00
39555;BME280;25231;48.746;9.234;2023-02-13T02:10:43;98540.41;;;2.26;100.00
39555;BME280;25231;48.746;9.234;2023-02-13T02:13:16;98534.09;;;2.19;100.00
39555;BME280;25231;48.746;9.234;2023-02-13T02:15:43;98543.78;;;2.17;100.00
39555;BME280;25231;48.746;9.234;2023-02-13T02:18:13;98538.63;;;2.26;100.00
39555;BME280;25231;48.746;9.234;2023-02-13T02:26:34;98535.75;;;2.20;100.00
39555;BME280;25231;48.746;9.234;2023-02-13T02:47:26;98540.03;;;2.00;100.00
39555;BME280;25231;48.746;9.234;2023-02-13T02:50:41;98532.53;;;1.97;100.00
39555;BME280;25231;48.746;9.234;2023-02-13T02:53:32;98543.69;;;1.97;100.00
39555;BME280;25231;48.746;9.234;2023-02-13T02:58:44;98534.56;;;1.93;100.00
39555;BME280;25231;48.746;9.234;2023-02-13T03:01:31;98535.97;;;2.07;100.00
39555;BME280;25231;48.746;9.234;2023-02-13T03:04:27;98540.63;;;2.13;100.00
39555;BME280;25231;48.746;9.234;2023-02-13T03:07:15;98536.03;;;2.17;100.00
39555;BME280;25231;48.746;9.234;2023-02-13T03:10:22;98536.69;;;2.19;100.00
39555;BME280;25231;48.746;9.234;2023-02-13T03:13:14;98539.56;;;2.16;100.00
39555;BME280;25231;48.746;9.234;2023-02-13T03:15:50;98537.09;;;2.14;100.00
39555;BME280;25231;48.746;9.234;2023-02-13T03:18:40;98548.25;;;2.15;100.00
39555;BME280;25231;48.746;9.234;2023-02-13T03:25:05;98549.22;;;2.23;100.00
39555;BME280;25231;48.746;9.234;2023-02-13T03:27:58;98554.66;;;2.11;100.00
39555;BME280;25231;48.746;9.234;2023-02-13T03:31:09;98550.03;;;2.14;100.00
39555;BME280;25231;48.746;9.234;2023-02-13T03:33:49;98549.63;;;2.19;100.00
39555;BME280;25231;48.746;9.234;2023-02-13T03:36:28;98551.38;;;2.18;100.00
39555;BME280;25231;48.746;9.234;2023-02-13T03:39:19;98558.72;;;2.13;100.00
39555;BME280;25231;48.746;9.234;2023-02-13T03:42:08;98554.72;;;1.99;100.00
39555;BME280;25231;48.746;9.234;2023-02-13T03:44:42;98561.41;;;2.02;100.00
39555;BME280;25231;48.746;9.234;2023-02-13T03:47:09;98559.84;;;2.20;100.00
39555;BME280;25231;48.746;9.234;2023-02-13T03:49:46;98565.88;;;2.30;100.00
39555;BME280;25231;48.746;9.234;2023-02-13T03:52:43;98562.22;;;2.33;100.00
39555;BME280;25231;48.746;9.234;2023-02-13T03:55:13;98555.81;;;2.37;100.00
39555;BME280;25231;48.746;9.234;2023-02-13T03:58:05;98561.19;;;2.15;100.00
39555;BME280;25231;48.746;9.234;2023-02-13T04:00:53;98560.56;;;2.01;100.00
39555;BME280;25231;48.746;9.234;2023-02-13T04:05:57;98571.81;;;1.91;100.00
39555;BME280;25231;48.746;9.234;2023-02-13T04:08:25;98569.63;;;1.86;100.00
39555;BME280;25231;48.746;9.234;2023-02-13T04:11:03;98573.66;;;2.00;100.00
39555;BME280;25231;48.746;9.234;2023-02-13T04:13:38;98579.50;;;2.02;100.00
39555;BME280;25231;48.746;9.234;2023-02-13T04:16:18;98576.34;;;1.98;100.00
39555;BME280;25231;48.746;9.234;2023-02-13T04:18:46;98579.66;;;2.00;100.00
39555;BME280;25231;48.746;9.234;2023-02-13T04:21:13;98578.00;;;1.99;100.00
39555;BME280;25231;48.746;9.234;2023-02-13T04:23:38;98577.56;;;1.94;100.00
39555;BME280;25231;48.746;9.234;2023-02-13T04:26:08;98583.91;;;1.90;100.00
39555;BME280;25231;48.746;9.234;2023-02-13T04:28:38;98572.91;;;1.88;100.00
39555;BME280;25231;48.746;9.234;2023-02-13T04:31:04;98585.25;;;1.85;100.00
39555;BME280;25231;48.746;9.234;2023-02-13T04:33:29;98579.66;;;1.80;100.00
39555;BME280;25231;48.746;9.234;2023-02-13T04:35:55;98585.69;;;1.90;100.00
39555;BME280;25231;48.746;9.234;2023-02-13T04:38:21;98583.75;;;1.82;100.00
39555;BME280;25231;48.746;9.234;2023-02-13T04:40:46;98578.91;;;1.89;100.00
39555;BME280;25231;48.746;9.234;2023-02-13T04:43:11;98586.22;;;1.84;100.00
39555;BME280;25231;48.746;9.234;2023-02-13T04:45:37;98584.88;;;1.68;100.00
39555;BME280;25231;48.746;9.234;2023-02-13T04:48:02;98575.31;;;1.59;100.00
39555;BME280;25231;48.746;9.234;2023-02-13T04:50:28;98568.50;;;1.58;100.00
39555;BME280;25231;48.746;9.234;2023-02-13T04:52:55;98587.03;;;1.63;100.00
39555;BME280;25231;48.746;9.234;2023-02-13T04:55:22;98577.50;;;1.64;100.00
39555;BME280;25231;48.746;9.234;2023-02-13T04:57:47;98590.19;;;1.67;100.00
39555;BME280;25231;48.746;9.234;2023-02-13T05:00:13;98594.28;;;1.70;100.00
39555;BME280;25231;48.746;9.234;2023-02-13T05:02:38;98590.19;;;1.67;100.00
39555;BME280;25231;48.746;9.234;2023-02-13T05:05:04;98589.16;;;1.79;100.00
39555;BME280;25231;48.746;9.234;2023-02-13T05:07:30;98586.72;;;1.78;100.00
39555;BME280;25231;48.746;9.234;2023-02-13T05:09:55;98591.81;;;1.68;100.00
39555;BME280;25231;48.746;9.234;2023-02-13T05:12:21;98588.78;;;1.63;100.00
39555;BME280;25231;48.746;9.234;2023-02-13T05:14:46;98590.13;;;1.57;100.00
39555;BME280;25231;48.746;9.234;2023-02-13T05:17:12;98596.81;;;1.60;100.00
39555;BME280;25231;48.746;9.234;2023-02-13T05:19:37;98593.06;;;1.53;100.00
39555;BME280;25231;48.746;9.234;2023-02-13T05:22:03;98591.88;;;1.57;100.00
39555;BME280;25231;48.746;9.234;2023-02-13T05:24:47;98591.06;;;1.56;100.00
39555;BME280;25231;48.746;9.234;2023-02-13T05:27:12;98593.28;;;1.61;100.00
39555;BME280;25231;48.746;9.234;2023-02-13T05:29:38;98596.81;;;1.60;100.00
39555;BME280;25231;48.746;9.234;2023-02-13T05:32:03;98587.78;;;1.54;100.00
39555;BME280;25231;48.746;9.234;2023-02-13T05:34:29;98595.59;;;1.43;100.00
39555;BME280;25231;48.746;9.234;2023-02-13T05:36:55;98601.22;;;1.48;100.00
39555;BME280;25231;48.746;9.234;2023-02-13T05:39:21;98594.88;;;1.41;100.00
39555;BME280;25231;48.746;9.234;2023-02-13T05:41:47;98596.03;;;1.48;100.00
39555;BME280;25231;48.746;9.234;2023-02-13T05:44:14;98592.53;;;1.49;100.00
39555;BME280;25231;48.746;9.234;2023-02-13T05:46:40;98599.31;;;1.50;100.00
39555;BME280;25231;48.746;9.234;2023-02-13T05:49:09;98593.13;;;1.62;100.00
39555;BME280;25231;48.746;9.234;2023-02-13T05:51:35;98590.44;;;1.43;100.00
39555;BME280;25231;48.746;9.234;2023-02-13T05:54:00;98591.94;;;1.46;100.00
39555;BME280;25231;48.746;9.234;2023-02-13T05:56:26;98586.03;;;1.55;100.00
39555;BME280;25231;48.746;9.234;2023-02-13T05:58:53;98587.78;;;1.54;100.00
39555;BME280;25231;48.746;9.234;2023-02-13T06:01:19;98592.84;;;1.56;100.00
39555;BME280;25231;48.746;9.234;2023-02-13T06:03:45;98586.97;;;1.54;100.00
39555;BME280;25231;48.746;9.234;2023-02-13T06:06:11;98589.88;;;1.60;100.00
39555;BME280;25231;48.746;9.234;2023-02-13T06:08:36;98587.34;;;1.49;100.00
39555;BME280;25231;48.746;9.234;2023-02-13T06:11:02;98579.16;;;1.44;100.00
39555;BME280;25231;48.746;9.234;2023-02-13T06:13:28;98589.59;;;1.43;100.00
39555;BME280;25231;48.746;9.234;2023-02-13T06:15:54;98584.59;;;1.30;100.00
39555;BME280;25231;48.746;9.234;2023-02-13T06:18:19;98580.88;;;1.23;100.00
39555;BME280;25231;48.746;9.234;2023-02-13T06:20:45;98585.81;;;1.26;100.00
39555;BME280;25231;48.746;9.234;2023-02-13T06:23:10;98591.88;;;1.36;100.00
39555;BME280;25231;48.746;9.234;2023-02-13T06:25:36;98593.28;;;1.29;100.00
39555;BME280;25231;48.746;9.234;2023-02-13T06:28:03;98594.88;;;1.20;100.00
39555;BME280;25231;48.746;9.234;2023-02-13T06:30:29;98596.25;;;1.24;100.00
39555;BME280;25231;48.746;9.234;2023-02-13T06:32:55;98595.72;;;1.10;100.00
39555;BME280;25231;48.746;9.234;2023-02-13T06:35:20;98598.78;;;1.04;100.00
39555;BME280;25231;48.746;9.234;2023-02-13T06:37:46;98598.34;;;0.99;100.00
39555;BME280;25231;48.746;9.234;2023-02-13T06:40:14;98602.66;;;1.09;100.00
39555;BME280;25231;48.746;9.234;2023-02-13T06:42:41;98599.00;;;1.12;100.00
39555;BME280;25231;48.746;9.234;2023-02-13T06:45:07;98596.06;;;1.16;100.00
39555;BME280;25231;48.746;9.234;2023-02-13T06:47:32;98601.91;;;1.18;100.00
39555;BME280;25231;48.746;9.234;2023-02-13T06:49:58;98603.88;;;1.26;100.00
39555;BME280;25231;48.746;9.234;2023-02-13T06:52:23;98606.34;;;1.28;100.00
39555;BME280;25231;48.746;9.234;2023-02-13T06:54:49;98602.00;;;1.28;100.00
39555;BME280;25231;48.746;9.234;2023-02-13T06:57:14;98604.06;;;1.34;100.00
39555;BME280;25231;48.746;9.234;2023-02-13T06:59:40;98603.03;;;1.37;100.00
39555;BME280;25231;48.746;9.234;2023-02-13T07:02:05;98607.19;;;1.49;100.00
39555;BME280;25231;48.746;9.234;2023-02-13T07:04:31;98610.72;;;1.48;100.00
39555;BME280;25231;48.746;9.234;2023-02-13T07:06:56;98608.63;;;1.62;100.00
39555;BME280;25231;48.746;9.234;2023-02-13T07:09:23;98607.81;;;1.62;100.00
39555;BME280;25231;48.746;9.234;2023-02-13T07:11:48;98616.38;;;1.62;100.00
39555;BME280;25231;48.746;9.234;2023-02-13T07:14:14;98613.56;;;1.86;100.00
39555;BME280;25231;48.746;9.234;2023-02-13T07:16:39;98613.00;;;1.83;100.00
39555;BME280;25231;48.746;9.234;2023-02-13T07:19:05;98617.84;;;1.97;100.00
39555;BME280;25231;48.746;9.234;2023-02-13T07:21:30;98614.25;;;2.09;100.00
39555;BME280;25231;48.746;9.234;2023-02-13T07:23:56;98618.47;;;2.10;100.00
39555;BME280;25231;48.746;9.234;2023-02-13T07:26:22;98610.63;;;2.21;100.00
39555;BME280;25231;48.746;9.234;2023-02-13T07:28:48;98620.28;;;2.19;100.00
39555;BME280;25231;48.746;9.234;2023-02-13T07:31:13;98624.16;;;2.34;100.00
39555;BME280;25231;48.746;9.234;2023-02-13T07:34:01;98618.88;;;2.36;100.00
39555;BME280;25231;48.746;9.234;2023-02-13T07:36:33;98618.44;;;2.31;100.00
39555;BME280;25231;48.746;9.234;2023-02-13T07:38:58;98622.72;;;2.51;100.00
39555;BME280;25231;48.746;9.234;2023-02-13T07:41:24;98630.13;;;2.56;100.00
39555;BME280;25231;48.746;9.234;2023-02-13T07:43:53;98626.22;;;2.71;100.00
39555;BME280;25231;48.746;9.234;2023-02-13T07:46:19;98625.22;;;2.62;100.00
39555;BME280;25231;48.746;9.234;2023-02-13T07:48:45;98637.16;;;2.84;100.00
39555;BME280;25231;48.746;9.234;2023-02-13T07:51:10;98628.72;;;2.91;100.00
39555;BME280;25231;48.746;9.234;2023-02-13T07:53:40;98619.47;;;2.89;100.00
39555;BME280;25231;48.746;9.234;2023-02-13T07:56:06;98624.66;;;2.99;100.00
39555;BME280;25231;48.746;9.234;2023-02-13T07:58:32;98624.00;;;3.06;100.00
39555;BME280;25231;48.746;9.234;2023-02-13T08:00:57;98623.72;;;3.19;100.00
39555;BME280;25231;48.746;9.234;2023-02-13T08:03:22;98627.88;;;5.08;100.00
39555;BME280;25231;48.746;9.234;2023-02-13T08:05:48;98628.00;;;4.24;100.00
39555;BME280;25231;48.746;9.234;2023-02-13T08:08:14;98621.13;;;3.57;100.00
39555;BME280;25231;48.746;9.234;2023-02-13T08:10:39;98621.84;;;3.59;100.00
39555;BME280;25231;48.746;9.234;2023-02-13T08:13:23;98624.56;;;3.67;100.00
39555;BME280;25231;48.746;9.234;2023-02-13T08:15:49;98629.59;;;3.59;100.00
39555;BME280;25231;48.746;9.234;2023-02-13T08:18:14;98621.84;;;3.59;100.00
39555;BME280;25231;48.746;9.234;2023-02-13T08:20:40;98621.16;;;3.67;100.00
39555;BME280;25231;48.746;9.234;2023-02-13T08:23:08;98630.72;;;3.66;100.00
39555;BME280;25231;48.746;9.234;2023-02-13T08:25:34;98634.78;;;3.59;100.00
39555;BME280;25231;48.746;9.234;2023-02-13T08:28:00;98629.47;;;3.61;100.00
39555;BME280;25231;48.746;9.234;2023-02-13T08:30:26;98627.84;;;3.50;100.00
39555;BME280;25231;48.746;9.234;2023-02-13T08:32:51;98628.66;;;3.51;100.00
39555;BME280;25231;48.746;9.234;2023-02-13T08:35:17;98628.50;;;3.52;100.00
39555;BME280;25231;48.746;9.234;2023-02-13T08:37:42;98624.03;;;3.45;100.00
39555;BME280;25231;48.746;9.234;2023-02-13T08:40:09;98627.41;;;3.64;100.00
39555;BME280;25231;48.746;9.234;2023-02-13T08:42:35;98630.28;;;3.42;100.00
39555;BME280;25231;48.746;9.234;2023-02-13T08:45:01;98616.38;;;3.72;100.00
39555;BME280;25231;48.746;9.234;2023-02-13T08:47:26;98616.38;;;3.72;100.00
39555;BME280;25231;48.746;9.234;2023-02-13T08:49:52;98624.00;;;3.83;100.00
39555;BME280;25231;48.746;9.234;2023-02-13T08:52:18;98617.59;;;3.58;100.00
39555;BME280;25231;48.746;9.234;2023-02-13T08:54:43;98615.00;;;3.68;100.00
39555;BME280;25231;48.746;9.234;2023-02-13T08:57:09;98611.59;;;3.48;100.00
39555;BME280;25231;48.746;9.234;2023-02-13T08:59:34;98614.59;;;3.53;100.00
39555;BME280;25231;48.746;9.234;2023-02-13T09:02:00;98614.88;;;3.60;100.00
39555;BME280;25231;48.746;9.234;2023-02-13T09:04:25;98614.34;;;3.56;100.00
39555;BME280;25231;48.746;9.234;2023-02-13T09:06:51;98617.06;;;3.55;100.00
39555;BME280;25231;48.746;9.234;2023-02-13T09:09:16;98625.38;;;3.20;100.00
39555;BME280;25231;48.746;9.234;2023-02-13T09:11:42;98620.59;;;3.25;100.00
39555;BME280;25231;48.746;9.234;2023-02-13T09:14:07;98620.88;;;3.31;100.00
39555;BME280;25231;48.746;9.234;2023-02-13T09:16:32;98617.59;;;3.58;100.00
39555;BME280;25231;48.746;9.234;2023-02-13T09:18:58;98620.34;;;3.66;100.00
39555;BME280;25231;48.746;9.234;2023-02-13T09:21:23;98619.53;;;3.56;100.00
39555;BME280;25231;48.746;9.234;2023-02-13T09:23:49;98618.84;;;3.45;100.00
39555;BME280;25231;48.746;9.234;2023-02-13T09:26:16;98618.69;;;3.46;100.00
39555;BME280;25231;48.746;9.234;2023-02-13T09:28:43;98617.19;;;3.72;100.00
39555;BME280;25231;48.746;9.234;2023-02-13T09:31:10;98619.50;;;3.66;100.00
39555;BME280;25231;48.746;9.234;2023-02-13T09:33:37;98626.19;;;3.78;100.00
39555;BME280;25231;48.746;9.234;2023-02-13T09:36:07;98621.91;;;3.96;100.00
39555;BME280;25231;48.746;9.234;2023-02-13T09:38:33;98621.22;;;4.04;100.00
39555;BME280;25231;48.746;9.234;2023-02-13T09:41:27;98627.50;;;4.01;100.00
39555;BME280;25231;48.746;9.234;2023-02-13T09:46:39;98630.75;;;4.13;100.00
39555;BME280;25231;48.746;9.234;2023-02-13T09:49:12;98636.38;;;4.08;100.00
39555;BME280;25231;48.746;9.234;2023-02-13T09:51:41;98637.16;;;4.28;100.00
39555;BME280;25231;48.746;9.234;2023-02-13T09:54:13;98629.75;;;4.33;100.00
39555;BME280;25231;48.746;9.234;2023-02-13T10:11:02;98629.34;;;4.65;100.00
39555;BME280;25231;48.746;9.234;2023-02-13T10:13:47;98630.59;;;4.61;100.00
39555;BME280;25231;48.746;9.234;2023-02-13T10:21:12;98635.66;;;4.90;100.00
39555;BME280;25231;48.746;9.234;2023-02-13T10:23:43;98633.25;;;4.79;100.00
39555;BME280;25231;48.746;9.234;2023-02-13T10:26:20;98633.28;;;4.96;100.00
39555;BME280;25231;48.746;9.234;2023-02-13T10:29:05;98632.59;;;4.77;100.00
39555;BME280;25231;48.746;9.234;2023-02-13T10:31:47;98629.84;;;5.06;100.00
39555;BME280;25231;48.746;9.234;2023-02-13T10:34:16;98634.59;;;4.83;100.00
39555;BME280;25231;48.746;9.234;2023-02-13T10:36:46;98620.88;;;4.90;100.00
39555;BME280;25231;48.746;9.234;2023-02-13T10:39:49;98629.53;;;4.81;100.00
39555;BME280;25231;48.746;9.234;2023-02-13T10:43:07;98625.06;;;5.01;100.00
39555;BME280;25231;48.746;9.234;2023-02-13T10:45:48;98619.66;;;5.12;100.00
39555;BME280;25231;48.746;9.234;2023-02-13T10:48:31;98617.69;;;5.24;100.00
39555;BME280;25231;48.746;9.234;2023-02-13T10:51:26;98622.06;;;5.23;100.00
39555;BME280;25231;48.746;9.234;2023-02-13T11:00:11;98608.91;;;5.42;97.26
39555;BME280;25231;48.746;9.234;2023-02-13T11:02:40;98602.00;;;5.33;95.92
39555;BME280;25231;48.746;9.234;2023-02-13T11:05:16;98598.88;;;5.48;96.02
39555;BME280;25231;48.746;9.234;2023-02-13T11:07:44;98603.38;;;5.63;95.06
39555;BME280;25231;48.746;9.234;2023-02-13T11:10:22;98598.13;;;5.73;93.91
39555;BME280;25231;48.746;9.234;2023-02-13T11:12:48;98594.84;;;5.71;93.71
39555;BME280;25231;48.746;9.234;2023-02-13T11:15:27;98591.56;;;5.69;94.35
39555;BME280;25231;48.746;9.234;2023-02-13T11:17:58;98593.72;;;5.73;95.33
39555;BME280;25231;48.746;9.234;2023-02-13T11:20:28;98596.69;;;5.78;94.54
39555;BME280;25231;48.746;9.234;2023-02-13T11:22:55;98597.94;;;5.74;95.40
39555;BME280;25231;48.746;9.234;2023-02-13T11:25:24;98593.31;;;5.86;93.96
39555;BME280;25231;48.746;9.234;2023-02-13T11:28:09;98593.88;;;5.90;92.53
39555;BME280;25231;48.746;9.234;2023-02-13T11:30:37;98600.53;;;5.74;93.64
39555;BME280;25231;48.746;9.234;2023-02-13T11:33:20;98592.81;;;6.00;92.06
39555;BME280;25231;48.746;9.234;2023-02-13T11:35:46;98594.00;;;6.14;91.50
39555;BME280;25231;48.746;9.234;2023-02-13T11:38:19;98589.16;;;6.19;89.88
39555;BME280;25231;48.746;9.234;2023-02-13T11:40:52;98599.31;;;6.30;89.04
39555;BME280;25231;48.746;9.234;2023-02-13T11:43:29;98590.78;;;6.46;88.97
39555;BME280;25231;48.746;9.234;2023-02-13T11:46:21;98594.31;;;6.37;89.68
39555;BME280;25231;48.746;9.234;2023-02-13T11:48:59;98596.16;;;6.52;87.73
39555;BME280;25231;48.746;9.234;2023-02-13T11:51:51;98590.44;;;6.41;89.73
39555;BME280;25231;48.746;9.234;2023-02-13T11:54:37;98595.28;;;6.36;90.49
39555;BME280;25231;48.746;9.234;2023-02-13T11:57:45;98592.78;;;6.26;91.46
39555;BME280;25231;48.746;9.234;2023-02-13T12:00:27;98585.53;;;6.38;91.53
39555;BME280;25231;48.746;9.234;2023-02-13T12:02:55;98585.59;;;6.54;91.43
39555;BME280;25231;48.746;9.234;2023-02-13T12:05:22;98584.63;;;6.55;91.28
39555;BME280;25231;48.746;9.234;2023-02-13T12:07:48;98584.44;;;6.48;90.59
39555;BME280;25231;48.746;9.234;2023-02-13T12:13:00;98581.19;;;6.46;89.06
39555;BME280;25231;48.746;9.234;2023-02-13T12:15:30;98581.06;;;6.56;89.67
39555;BME280;25231;48.746;9.234;2023-02-13T12:18:36;98573.94;;;6.66;89.83
39555;BME280;25231;48.746;9.234;2023-02-13T12:24:12;98576.47;;;6.50;88.97
39555;BME280;25231;48.746;9.234;2023-02-13T12:26:44;98574.94;;;6.05;89.17
39555;BME280;25231;48.746;9.234;2023-02-13T12:34:24;98581.25;;;5.59;93.16
39555;BME280;25231;48.746;9.234;2023-02-13T12:37:27;98571.38;;;6.06;90.01
39555;BME280;25231;48.746;9.234;2023-02-13T12:40:19;98573.31;;;5.86;91.65
39555;BME280;25231;48.746;9.234;2023-02-13T12:54:57;98562.09;;;6.88;89.12
39555;BME280;25231;48.746;9.234;2023-02-13T12:57:41;98560.00;;;6.99;87.31
39555;BME280;25231;48.746;9.234;2023-02-13T13:03:28;98560.47;;;6.79;89.59
39555;BME280;25231;48.746;9.234;2023-02-13T13:06:06;98551.88;;;7.10;87.68
39555;BME280;25231;48.746;9.234;2023-02-13T13:11:38;98548.97;;;7.30;86.21
39555;BME280;25231;48.746;9.234;2023-02-13T13:22:17;98541.13;;;7.22;85.88
39555;BME280;25231;48.746;9.234;2023-02-13T13:28:16;98536.25;;;7.59;85.65
39555;BME280;25231;48.746;9.234;2023-02-13T13:30:45;98540.16;;;7.55;85.20
39555;BME280;25231;48.746;9.234;2023-02-13T13:33:20;98533.16;;;7.47;85.43
39555;BME280;25231;48.746;9.234;2023-02-13T13:36:02;98537.06;;;7.60;84.61
39555;BME280;25231;48.746;9.234;2023-02-13T13:52:27;98533.63;;;7.59;83.86
39555;BME280;25231;48.746;9.234;2023-02-13T13:54:54;98532.00;;;7.66;83.08
39555;BME280;25231;48.746;9.234;2023-02-13T14:02:41;98530.19;;;7.83;81.38
39555;BME280;25231;48.746;9.234;2023-02-13T14:05:29;98532.78;;;7.75;81.50
39555;BME280;25231;48.746;9.234;2023-02-13T14:08:03;98528.72;;;7.72;80.95
39555;BME280;25231;48.746;9.234;2023-02-13T14:13:31;98530.06;;;7.44;84.22
39555;BME280;25231;48.746;9.234;2023-02-13T14:15:57;98530.19;;;7.75;83.66
39555;BME280;25231;48.746;9.234;2023-02-13T14:18:24;98524.50;;;7.63;83.06
39555;BME280;25231;48.746;9.234;2023-02-13T14:20:54;98528.06;;;7.78;82.35
39555;BME280;25231;48.746;9.234;2023-02-13T14:23:44;98528.69;;;7.80;80.89
39555;BME280;25231;48.746;9.234;2023-02-13T14:31:49;98531.50;;;7.71;82.30
39555;BME280;25231;48.746;9.234;2023-02-13T14:34:20;98530.88;;;7.69;82.14
39555;BME280;25231;48.746;9.234;2023-02-13T14:39:34;98532.66;;;7.68;80.74
39555;BME280;25231;48.746;9.234;2023-02-13T14:42:01;98536.56;;;7.48;81.78
39555;BME280;25231;48.746;9.234;2023-02-13T14:44:43;98536.59;;;7.56;82.62
39555;BME280;25231;48.746;9.234;2023-02-13T14:47:31;98533.31;;;7.54;82.35
39555;BME280;25231;48.746;9.234;2023-02-13T14:50:01;98537.72;;;7.29;83.21
39555;BME280;25231;48.746;9.234;2023-02-13T14:52:37;98532.16;;;7.08;82.48
39555;BME280;25231;48.746;9.234;2023-02-13T14:55:13;98532.19;;;7.24;84.18
39555;BME280;25231;48.746;9.234;2023-02-13T14:57:56;98528.28;;;7.44;83.02
39555;BME280;25231;48.746;9.234;2023-02-13T15:00:37;98527.94;;;7.39;82.81
39555;BME280;25231;48.746;9.234;2023-02-13T15:05:56;98526.81;;;7.50;82.08
39555;BME280;25231;48.746;9.234;2023-02-13T15:08:33;98515.56;;;7.58;82.15
39555;BME280;25231;48.746;9.234;2023-02-13T15:11:00;98513.75;;;7.50;82.75
39555;BME280;25231;48.746;9.234;2023-02-13T15:13:34;98519.47;;;7.37;82.76
39555;BME280;25231;48.746;9.234;2023-02-13T15:16:09;98511.31;;;7.40;82.01
39555;BME280;25231;48.746;9.234;2023-02-13T15:18:50;98520.44;;;7.36;82.44
39555;BME280;25231;48.746;9.234;2023-02-13T15:21:23;98513.25;;;7.14;82.71
39555;BME280;25231;48.746;9.234;2023-02-13T15:23:53;98509.38;;;7.18;83.09
39555;BME280;25231;48.746;9.234;2023-02-13T15:26:24;98505.44;;;7.14;83.34
39555;BME280;25231;48.746;9.234;2023-02-13T15:29:04;98510.47;;;6.99;84.06
39555;BME280;25231;48.746;9.234;2023-02-13T15:31:31;98509.97;;;6.88;83.97
39555;BME280;25231;48.746;9.234;2023-02-13T15:33:58;98508.53;;;6.85;85.23
39555;BME280;25231;48.746;9.234;2023-02-13T15:36:25;98507.06;;;6.99;85.35
39555;BME280;25231;48.746;9.234;2023-02-13T15:38:58;98504.94;;;7.02;85.65
39555;BME280;25231;48.746;9.234;2023-02-13T15:41:28;98503.31;;;6.93;87.00
39555;BME280;25231;48.746;9.234;2023-02-13T15:43:57;98500.38;;;6.88;86.76